createdAt,value
2024-04-19T00:01:07.753Z,5.80
2024-04-19T00:03:34.910Z,7.00
2024-04-19T00:06:02.032Z,7.10
2024-04-19T00:08:32.108Z,7.27
2024-04-19T00:10:59.850Z,7.27
2024-04-19T00:13:26.841Z,5.57
2024-04-19T00:15:56.562Z,9.10
2024-04-19T00:18:23.542Z,5.30
2024-04-19T00:20:50.483Z,2.77
2024-04-19T00:23:17.552Z,4.73
2024-04-19T00:25:44.596Z,12.83
2024-04-19T00:28:11.518Z,5.83
2024-04-19T00:30:39.418Z,4.67
2024-04-19T00:33:12.801Z,7.67
2024-04-19T00:35:43.841Z,4.27
2024-04-19T00:38:10.814Z,5.70
2024-04-19T00:40:37.749Z,9.67
2024-04-19T00:43:05.553Z,5.37
2024-04-19T00:45:36.509Z,6.30
2024-04-19T00:48:26.750Z,10.03
2024-04-19T00:51:02.842Z,9.13
2024-04-19T00:53:32.905Z,9.97
2024-04-19T00:56:19.116Z,8.80
2024-04-19T00:58:50.343Z,5.83
2024-04-19T01:01:21.854Z,8.07
2024-04-19T01:03:49.165Z,9.57
2024-04-19T01:06:16.325Z,6.60
2024-04-19T01:08:43.358Z,8.03
2024-04-19T01:11:29.127Z,9.30
2024-04-19T01:13:59.242Z,9.60
2024-04-19T01:16:26.153Z,5.83
2024-04-19T01:18:53.982Z,7.00
2024-04-19T01:21:22.786Z,6.73
2024-04-19T01:23:54.775Z,5.30
2024-04-19T01:26:24.740Z,6.70
2024-04-19T01:28:51.965Z,6.03
2024-04-19T01:31:18.933Z,8.27
2024-04-19T01:33:46.082Z,8.37
2024-04-19T01:36:13.243Z,9.20
2024-04-19T01:38:49.513Z,6.97
2024-04-19T01:41:16.553Z,6.23
2024-04-19T01:43:46.527Z,5.27
2024-04-19T01:46:13.482Z,5.20
2024-04-19T01:48:40.542Z,6.47
2024-04-19T01:51:07.539Z,6.30
2024-04-19T01:53:34.484Z,7.40
2024-04-19T01:56:04.048Z,5.53
2024-04-19T01:58:40.080Z,6.73
2024-04-19T02:01:08.023Z,9.90
2024-04-19T02:03:35.392Z,9.93
2024-04-19T02:06:12.530Z,6.70
2024-04-19T02:08:39.846Z,8.00
2024-04-19T02:11:07.128Z,10.50
2024-04-19T02:13:34.698Z,6.33
2024-04-19T02:16:02.121Z,9.10
2024-04-19T02:18:29.310Z,6.20
2024-04-19T02:20:56.372Z,8.87
2024-04-19T02:23:43.229Z,7.77
2024-04-19T02:26:10.793Z,10.40
2024-04-19T02:28:59.210Z,12.83
2024-04-19T02:31:28.841Z,9.87
2024-04-19T02:33:56.134Z,13.83
2024-04-19T02:36:23.256Z,15.50
2024-04-19T02:38:50.823Z,8.80
2024-04-19T02:41:17.986Z,11.37
2024-04-19T02:43:48.660Z,9.30
2024-04-19T02:46:16.951Z,12.10
2024-04-19T02:48:45.443Z,9.77
2024-04-19T02:51:12.885Z,12.50
2024-04-19T02:53:39.901Z,12.40
2024-04-19T02:56:08.543Z,12.10
2024-04-19T02:58:35.911Z,12.10
2024-04-19T03:01:03.116Z,14.70
2024-04-19T03:03:30.390Z,14.80
2024-04-19T03:05:57.374Z,14.60
2024-04-19T03:08:27.501Z,15.90
2024-04-19T03:10:54.542Z,16.00
2024-04-19T03:13:22.138Z,16.83
2024-04-19T03:15:49.219Z,14.63
2024-04-19T03:18:35.030Z,15.53
2024-04-19T03:21:02.940Z,17.27
2024-04-19T03:23:30.606Z,14.17
2024-04-19T03:26:01.732Z,17.10
2024-04-19T03:28:28.994Z,17.50
2024-04-19T03:30:55.973Z,17.17
2024-04-19T03:33:23.097Z,18.07
2024-04-19T03:35:50.373Z,19.50
2024-04-19T03:38:17.839Z,22.23
2024-04-19T03:41:02.996Z,20.90
2024-04-19T03:43:34.089Z,18.33
2024-04-19T03:46:02.036Z,19.70
2024-04-19T03:48:32.078Z,16.10
2024-04-19T03:50:59.796Z,13.07
2024-04-19T03:53:26.770Z,13.47
2024-04-19T03:55:53.837Z,14.03
2024-04-19T03:58:20.835Z,13.03
2024-04-19T04:00:48.574Z,13.57
2024-04-19T04:03:18.420Z,12.23
2024-04-19T04:05:50.935Z,11.10
2024-04-19T04:08:17.957Z,13.57
2024-04-19T04:10:44.923Z,10.87
2024-04-19T04:13:11.912Z,11.07
2024-04-19T04:15:39.156Z,10.33
2024-04-19T04:18:06.810Z,11.07
2024-04-19T04:20:33.931Z,9.07
2024-04-19T04:23:01.280Z,9.03
2024-04-19T04:25:34.961Z,8.07
2024-04-19T04:28:02.860Z,8.27
2024-04-19T04:30:29.834Z,8.70
2024-04-19T04:32:57.136Z,11.30
2024-04-19T04:35:27.026Z,8.43
2024-04-19T04:37:53.962Z,8.80
2024-04-19T04:40:20.969Z,8.90
2024-04-19T04:42:47.983Z,8.30
2024-04-19T04:45:15.172Z,8.60
2024-04-19T04:47:42.207Z,10.83
2024-04-19T04:50:09.240Z,12.73
2024-04-19T04:52:36.251Z,10.00
2024-04-19T04:55:03.656Z,10.47
2024-04-19T04:57:35.006Z,10.53
2024-04-19T05:00:04.227Z,14.23
2024-04-19T05:02:31.280Z,10.93
2024-04-19T05:05:00.550Z,9.73
2024-04-19T05:07:30.036Z,11.57
2024-04-19T05:09:57.387Z,13.53
2024-04-19T05:12:24.679Z,9.53
2024-04-19T05:14:51.582Z,10.10
2024-04-19T05:17:18.598Z,10.30
2024-04-19T05:19:45.527Z,10.07
2024-04-19T05:22:12.728Z,11.00
2024-04-19T05:24:40.300Z,9.80
2024-04-19T05:27:07.259Z,11.03
2024-04-19T05:29:37.185Z,8.53
2024-04-19T05:32:04.443Z,9.60
2024-04-19T05:34:33.242Z,8.80
2024-04-19T05:37:02.536Z,10.33
2024-04-19T05:39:29.467Z,11.63
2024-04-19T05:41:56.464Z,9.23
2024-04-19T05:44:32.442Z,9.97
2024-04-19T05:47:02.852Z,14.17
2024-04-19T05:49:30.111Z,13.70
2024-04-19T05:51:57.138Z,15.50
2024-04-19T05:54:27.456Z,11.70
2024-04-19T05:56:54.448Z,11.57
2024-04-19T05:59:21.391Z,15.23
2024-04-19T06:01:48.648Z,13.73
2024-04-19T06:04:16.004Z,13.37
2024-04-19T06:06:43.177Z,15.13
2024-04-19T06:09:10.226Z,12.93
2024-04-19T06:11:37.240Z,13.90
2024-04-19T06:14:04.326Z,14.90
2024-04-19T06:16:31.429Z,14.20
2024-04-19T06:19:01.300Z,15.70
2024-04-19T06:21:28.860Z,12.57
2024-04-19T06:23:55.905Z,14.33
2024-04-19T06:26:22.960Z,13.33
2024-04-19T06:28:52.154Z,12.90
2024-04-19T06:31:21.546Z,11.97
2024-04-19T06:33:49.009Z,12.20
2024-04-19T06:36:16.117Z,14.30
2024-04-19T06:38:43.473Z,12.50
2024-04-19T06:41:10.477Z,13.50
2024-04-19T06:43:37.537Z,9.10
2024-04-19T06:46:04.662Z,13.27
2024-04-19T06:48:31.841Z,11.17
2024-04-19T06:50:59.004Z,10.73
2024-04-19T06:53:26.011Z,11.10
2024-04-19T06:55:54.213Z,11.23
2024-04-19T06:58:21.572Z,12.03
2024-04-19T07:01:05.893Z,12.60
2024-04-19T07:03:39.769Z,12.20
2024-04-19T07:06:20.249Z,11.10
2024-04-19T07:08:54.470Z,9.70
2024-04-19T07:11:21.844Z,11.47
2024-04-19T07:13:49.081Z,9.27
2024-04-19T07:16:18.444Z,9.90
2024-04-19T07:18:48.612Z,9.43
2024-04-19T07:21:16.793Z,8.43
2024-04-19T07:23:46.303Z,10.57
2024-04-19T07:26:13.482Z,7.87
2024-04-19T07:28:40.489Z,10.50
2024-04-19T07:31:08.730Z,10.07
2024-04-19T07:33:35.834Z,9.07
2024-04-19T07:36:03.200Z,9.17
2024-04-19T07:38:33.188Z,9.23
2024-04-19T07:41:13.462Z,9.90
2024-04-19T07:43:49.208Z,9.20
2024-04-19T07:46:17.665Z,9.20
2024-04-19T07:48:44.832Z,8.03
2024-04-19T07:51:11.889Z,8.80
2024-04-19T07:53:38.836Z,7.30
2024-04-19T07:56:06.087Z,8.80
2024-04-19T07:58:34.858Z,7.60
2024-04-19T08:01:02.182Z,6.70
2024-04-19T08:03:29.354Z,6.50
2024-04-19T08:05:56.390Z,8.77
2024-04-19T08:08:23.380Z,6.07
2024-04-19T08:10:50.410Z,7.00
2024-04-19T08:13:17.326Z,6.00
2024-04-19T08:15:44.380Z,7.00
2024-04-19T08:18:11.503Z,5.80
2024-04-19T08:20:38.783Z,5.23
2024-04-19T08:23:05.713Z,5.60
2024-04-19T08:25:32.700Z,4.43
2024-04-19T08:28:00.179Z,8.70
2024-04-19T08:30:27.443Z,4.63
2024-04-19T08:32:54.552Z,4.33
2024-04-19T08:35:21.666Z,4.63
2024-04-19T08:37:48.566Z,4.30
2024-04-19T08:40:15.794Z,4.90
2024-04-19T08:42:43.502Z,4.20
2024-04-19T08:45:14.411Z,3.77
2024-04-19T08:47:46.843Z,4.40
2024-04-19T08:50:16.402Z,4.27
2024-04-19T08:53:09.231Z,3.70
2024-04-19T08:55:39.496Z,4.10
2024-04-19T08:58:07.637Z,3.73
2024-04-19T09:00:34.695Z,4.30
2024-04-19T09:03:02.129Z,3.53
2024-04-19T09:05:29.955Z,2.70
2024-04-19T09:07:57.032Z,3.30
2024-04-19T09:10:23.995Z,3.90
2024-04-19T09:12:51.273Z,4.23
2024-04-19T09:15:20.017Z,4.50
2024-04-19T09:17:47.740Z,4.27
2024-04-19T09:20:14.810Z,4.07
2024-04-19T09:22:41.909Z,4.20
2024-04-19T09:25:08.899Z,3.60
2024-04-19T09:27:36.344Z,3.50
2024-04-19T09:30:03.584Z,4.57
2024-04-19T09:32:30.746Z,4.27
2024-04-19T09:34:57.817Z,4.40
2024-04-19T09:37:27.685Z,5.27
2024-04-19T09:39:58.259Z,3.73
2024-04-19T09:42:25.679Z,3.53
2024-04-19T09:44:53.697Z,6.37
2024-04-19T09:47:20.737Z,2.93
2024-04-19T09:49:48.468Z,7.00
2024-04-19T09:52:24.263Z,4.73
2024-04-19T09:55:11.016Z,5.60
2024-04-19T09:57:40.401Z,5.17
2024-04-19T10:00:09.230Z,4.47
2024-04-19T10:02:41.118Z,6.80
2024-04-19T10:05:08.726Z,5.77
2024-04-19T10:07:38.466Z,5.17
2024-04-19T10:10:06.510Z,3.47
2024-04-19T10:12:40.768Z,4.40
2024-04-19T10:15:14.878Z,6.07
2024-04-19T10:17:42.245Z,9.03
2024-04-19T10:20:12.221Z,6.80
2024-04-19T10:22:44.379Z,8.00
2024-04-19T10:25:11.541Z,5.30
2024-04-19T10:27:39.123Z,9.13
2024-04-19T10:30:11.573Z,11.77
2024-04-19T10:32:43.696Z,7.67
2024-04-19T10:35:16.450Z,6.03
2024-04-19T10:37:43.437Z,7.77
2024-04-19T10:40:14.663Z,6.77
2024-04-19T10:42:42.644Z,4.03
2024-04-19T10:45:15.775Z,3.40
2024-04-19T10:47:47.207Z,6.43
2024-04-19T10:50:15.472Z,3.00
2024-04-19T10:52:42.936Z,9.60
2024-04-19T10:55:11.169Z,7.20
2024-04-19T10:57:41.133Z,5.23
2024-04-19T11:00:09.005Z,3.17
2024-04-19T11:02:36.785Z,6.60
2024-04-19T11:05:04.006Z,9.47
2024-04-19T11:07:31.443Z,4.37
2024-04-19T11:09:58.726Z,2.37
2024-04-19T11:12:26.996Z,5.90
2024-04-19T11:14:54.263Z,3.80
2024-04-19T11:17:21.267Z,5.83
2024-04-19T11:19:48.546Z,6.00
2024-04-19T11:22:16.364Z,5.97
2024-04-19T11:24:43.354Z,5.83
2024-04-19T11:27:10.554Z,4.07
2024-04-19T11:29:37.789Z,2.90
2024-04-19T11:32:08.939Z,8.40
2024-04-19T11:34:36.997Z,6.87
2024-04-19T11:37:05.539Z,6.63
2024-04-19T11:39:32.986Z,7.13
2024-04-19T11:42:00.463Z,4.13
2024-04-19T11:44:27.672Z,3.67
2024-04-19T11:47:02.717Z,2.40
2024-04-19T11:49:29.876Z,2.00
2024-04-19T11:51:57.002Z,2.53
2024-04-19T11:54:27.915Z,1.57
2024-04-19T11:56:55.446Z,1.43
2024-04-19T11:59:25.129Z,3.10
2024-04-19T12:01:53.573Z,2.73
2024-04-19T12:04:23.191Z,4.47
2024-04-19T12:06:50.624Z,1.67
2024-04-19T12:09:18.260Z,1.57
2024-04-19T12:12:18.213Z,3.10
2024-04-19T12:15:22.732Z,2.30
2024-04-19T12:17:27.287Z,2.20
2024-04-19T12:19:57.854Z,2.33
2024-04-19T12:22:28.277Z,7.57
2024-04-19T12:24:57.648Z,2.70
2024-04-19T12:27:25.289Z,3.37
2024-04-19T12:29:55.595Z,3.00
2024-04-19T12:32:22.703Z,1.90
2024-04-19T12:34:49.855Z,1.63
2024-04-19T12:37:19.137Z,1.17
2024-04-19T12:39:46.195Z,4.80
2024-04-19T12:42:13.439Z,1.60
2024-04-19T12:44:42.177Z,2.93
2024-04-19T12:47:11.906Z,1.07
2024-04-19T12:49:39.143Z,1.23
2024-04-19T12:52:06.220Z,4.37
2024-04-19T12:54:33.331Z,5.83
2024-04-19T12:57:00.542Z,1.40
2024-04-19T12:59:27.633Z,2.60
2024-04-19T13:01:54.813Z,1.47
2024-04-19T13:04:22.085Z,1.87
2024-04-19T13:06:49.262Z,3.57
2024-04-19T13:09:19.423Z,1.90
2024-04-19T13:11:49.251Z,1.73
2024-04-19T13:14:16.321Z,1.53
2024-04-19T13:16:43.412Z,1.80
2024-04-19T13:19:12.248Z,1.40
2024-04-19T13:21:39.259Z,2.23
2024-04-19T13:24:06.626Z,2.20
2024-04-19T13:26:33.853Z,3.70
2024-04-19T13:29:03.525Z,2.03
2024-04-19T13:31:30.769Z,2.13
2024-04-19T13:34:00.464Z,2.30
2024-04-19T13:36:30.117Z,3.93
2024-04-19T13:39:00.040Z,3.50
2024-04-19T13:41:27.834Z,3.43
2024-04-19T13:43:54.804Z,3.53
2024-04-19T13:46:24.329Z,4.50
2024-04-19T13:48:52.060Z,3.67
2024-04-19T13:51:19.239Z,4.03
2024-04-19T13:53:50.730Z,2.53
2024-04-19T13:56:17.822Z,4.43
2024-04-19T13:58:47.347Z,3.90
2024-04-19T14:01:19.563Z,2.07
2024-04-19T14:03:48.156Z,4.17
2024-04-19T14:06:16.625Z,5.63
2024-04-19T14:08:43.874Z,2.63
2024-04-19T14:11:10.869Z,4.23
2024-04-19T14:13:40.087Z,6.07
2024-04-19T14:16:08.549Z,8.27
2024-04-19T14:18:35.729Z,5.37
2024-04-19T14:21:02.716Z,5.87
2024-04-19T14:23:30.535Z,3.70
2024-04-19T14:25:57.829Z,8.73
2024-04-19T14:28:24.828Z,14.33
2024-04-19T14:30:52.371Z,5.43
2024-04-19T14:33:22.317Z,4.20
2024-04-19T14:35:49.412Z,4.73
2024-04-19T14:38:18.908Z,7.30
2024-04-19T14:40:45.952Z,5.67
2024-04-19T14:43:12.981Z,4.70
2024-04-19T14:45:39.979Z,7.00
2024-04-19T14:48:07.275Z,3.90
2024-04-19T14:50:34.356Z,4.53
2024-04-19T14:53:08.796Z,5.00
2024-04-19T14:55:40.208Z,5.53
2024-04-19T14:58:07.329Z,7.40
2024-04-19T15:00:34.486Z,5.80
2024-04-19T15:03:01.719Z,5.33
2024-04-19T15:05:28.930Z,8.80
2024-04-19T15:07:58.694Z,6.23
2024-04-19T15:10:26.444Z,6.00
2024-04-19T15:12:53.443Z,6.30
2024-04-19T15:15:20.622Z,4.67
2024-04-19T15:17:48.597Z,6.80
2024-04-19T15:20:16.565Z,5.07
2024-04-19T15:22:43.874Z,10.03
2024-04-19T15:25:11.805Z,8.70
2024-04-19T15:27:39.244Z,8.87
2024-04-19T15:30:06.918Z,7.30
2024-04-19T15:32:34.015Z,6.73
2024-04-19T15:35:01.023Z,7.07
2024-04-19T15:37:31.133Z,9.80
2024-04-19T15:39:58.197Z,9.10
2024-04-19T15:42:25.300Z,8.73
2024-04-19T15:44:52.316Z,6.33
2024-04-19T15:47:19.319Z,16.43
2024-04-19T15:49:51.399Z,6.90
2024-04-19T15:52:20.374Z,5.70
2024-04-19T15:54:48.590Z,3.80
2024-04-19T15:57:16.019Z,4.13
2024-04-19T15:59:43.158Z,7.23
2024-04-19T16:02:10.373Z,10.03
2024-04-19T16:04:37.462Z,13.83
2024-04-19T16:07:04.691Z,7.40
2024-04-19T16:09:31.738Z,14.17
2024-04-19T16:11:59.303Z,7.53
2024-04-19T16:14:26.312Z,13.80
2024-04-19T16:16:56.503Z,11.27
2024-04-19T16:19:24.685Z,7.93
2024-04-19T16:21:54.465Z,10.03
2024-04-19T16:24:21.636Z,13.20
2024-04-19T16:26:48.623Z,11.33
2024-04-19T16:29:15.570Z,6.93
2024-04-19T16:31:45.155Z,5.60
2024-04-19T16:34:13.132Z,4.40
2024-04-19T16:36:43.390Z,6.50
2024-04-19T16:39:10.969Z,8.60
2024-04-19T16:41:37.927Z,11.03
2024-04-19T16:44:05.053Z,11.50
2024-04-19T16:46:33.365Z,6.17
2024-04-19T16:49:00.471Z,10.13
2024-04-19T16:51:27.666Z,7.00
2024-04-19T16:53:55.123Z,5.40
2024-04-19T16:56:22.194Z,12.30
2024-04-19T16:58:49.235Z,8.47
2024-04-19T17:01:16.299Z,7.00
2024-04-19T17:03:43.475Z,2.70
2024-04-19T17:06:12.185Z,6.20
2024-04-19T17:08:39.281Z,5.57
2024-04-19T17:11:09.301Z,7.27
2024-04-19T17:13:36.278Z,6.43
2024-04-19T17:16:03.439Z,6.03
2024-04-19T17:18:30.475Z,2.20
2024-04-19T17:21:00.465Z,4.27
2024-04-19T17:23:29.146Z,6.60
2024-04-19T17:25:56.112Z,5.33
2024-04-19T17:28:23.045Z,3.87
2024-04-19T17:30:55.716Z,9.33
2024-04-19T17:33:22.967Z,8.90
2024-04-19T17:35:50.043Z,3.70
2024-04-19T17:38:17.011Z,5.23
2024-04-19T17:40:44.031Z,3.90
2024-04-19T17:43:11.095Z,12.67
2024-04-19T17:45:38.283Z,6.67
2024-04-19T17:48:05.620Z,6.57
2024-04-19T17:50:33.146Z,7.10
2024-04-19T17:53:01.151Z,7.43
2024-04-19T17:55:30.401Z,5.30
2024-04-19T17:57:57.908Z,7.37
2024-04-19T18:00:24.975Z,5.90
2024-04-19T18:02:52.219Z,5.10
2024-04-19T18:05:19.540Z,5.63
2024-04-19T18:07:46.538Z,3.00
2024-04-19T18:10:15.238Z,2.93
2024-04-19T18:12:42.164Z,4.87
2024-04-19T18:15:09.151Z,4.50
2024-04-19T18:17:36.290Z,5.03
2024-04-19T18:20:05.183Z,12.37
2024-04-19T18:22:32.563Z,5.70
2024-04-19T18:25:00.497Z,6.83
2024-04-19T18:27:27.531Z,7.03
2024-04-19T18:29:58.048Z,6.80
2024-04-19T18:32:25.214Z,3.23
2024-04-19T18:34:54.977Z,3.57
2024-04-19T18:37:24.857Z,2.03
2024-04-19T18:39:52.043Z,6.80
2024-04-19T18:42:19.040Z,7.80
2024-04-19T18:44:46.144Z,5.60
2024-04-19T18:47:16.977Z,4.97
2024-04-19T18:49:45.901Z,2.90
2024-04-19T18:52:13.067Z,5.13
2024-04-19T18:54:40.257Z,1.80
2024-04-19T18:57:07.882Z,3.87
2024-04-19T18:59:34.895Z,4.23
2024-04-19T19:02:05.560Z,3.37
2024-04-19T19:04:36.667Z,5.43
2024-04-19T19:07:03.875Z,2.23
2024-04-19T19:09:31.526Z,5.83
2024-04-19T19:12:00.652Z,2.20
2024-04-19T19:14:32.496Z,3.07
2024-04-19T19:17:01.125Z,2.87
2024-04-19T19:19:28.180Z,3.50
2024-04-19T19:21:55.992Z,3.20
2024-04-19T19:24:23.203Z,3.70
2024-04-19T19:26:50.195Z,3.40
2024-04-19T19:29:22.900Z,6.00
2024-04-19T19:31:50.404Z,4.23
2024-04-19T19:34:17.551Z,4.40
2024-04-19T19:36:46.823Z,2.60
2024-04-19T19:39:13.834Z,2.73
2024-04-19T19:41:40.896Z,4.80
2024-04-19T19:44:07.929Z,2.97
2024-04-19T19:46:34.873Z,3.90
2024-04-19T19:49:01.914Z,3.07
2024-04-19T19:51:28.918Z,3.73
2024-04-19T19:53:58.157Z,4.70
2024-04-19T19:56:25.095Z,2.93
2024-04-19T19:58:52.133Z,2.60
2024-04-19T20:01:37.629Z,2.90
2024-04-19T20:04:23.463Z,2.43
2024-04-19T20:06:51.424Z,3.13
2024-04-19T20:09:21.186Z,3.00
2024-04-19T20:11:50.153Z,2.40
2024-04-19T20:14:17.275Z,2.37
2024-04-19T20:16:44.354Z,4.17
2024-04-19T20:19:11.432Z,2.43
2024-04-19T20:21:38.437Z,2.90
2024-04-19T20:24:05.537Z,2.63
2024-04-19T20:26:32.532Z,2.30
2024-04-19T20:29:03.691Z,2.40
2024-04-19T20:31:31.158Z,3.40
2024-04-19T20:33:58.294Z,3.23
2024-04-19T20:36:25.507Z,5.70
2024-04-19T20:38:52.602Z,8.33
2024-04-19T20:41:22.025Z,5.20
2024-04-19T20:43:49.209Z,4.70
2024-04-19T20:46:16.304Z,7.40
2024-04-19T20:48:43.586Z,3.50
2024-04-19T20:51:10.732Z,5.37
2024-04-19T20:53:37.705Z,6.43
2024-04-19T20:56:05.028Z,9.70
2024-04-19T20:58:32.006Z,3.67
2024-04-19T21:01:05.212Z,4.13
2024-04-19T21:03:32.307Z,3.63
2024-04-19T21:05:59.280Z,2.17
2024-04-19T21:08:26.222Z,2.20
2024-04-19T21:10:53.309Z,2.63
2024-04-19T21:13:20.967Z,3.90
2024-04-19T21:16:09.046Z,3.10
2024-04-19T21:18:42.470Z,3.60
2024-04-19T21:21:09.531Z,3.40
2024-04-19T21:23:36.759Z,4.83
2024-04-19T21:26:05.894Z,4.67
2024-04-19T21:28:33.241Z,4.80
2024-04-19T21:31:04.123Z,8.77
2024-04-19T21:33:34.647Z,5.67
2024-04-19T21:36:02.062Z,9.30
2024-04-19T21:38:30.226Z,6.63
2024-04-19T21:41:02.214Z,6.90
2024-04-19T21:43:29.332Z,5.73
2024-04-19T21:45:56.303Z,6.47
2024-04-19T21:48:23.333Z,6.80
2024-04-19T21:50:50.281Z,4.60
2024-04-19T21:53:17.304Z,5.20
2024-04-19T21:55:47.232Z,5.93
2024-04-19T21:58:14.519Z,7.40
2024-04-19T22:00:41.612Z,12.30
2024-04-19T22:03:08.813Z,6.57
2024-04-19T22:05:35.863Z,8.57
2024-04-19T22:08:03.173Z,4.77
2024-04-19T22:10:30.258Z,6.23
2024-04-19T22:12:57.845Z,5.10
2024-04-19T22:15:24.903Z,4.47
2024-04-19T22:17:52.577Z,7.40
2024-04-19T22:20:19.808Z,5.27
2024-04-19T22:22:48.183Z,3.60
2024-04-19T22:25:15.172Z,11.00
2024-04-19T22:27:42.166Z,5.30
2024-04-19T22:30:09.317Z,4.93
2024-04-19T22:32:36.476Z,6.23
2024-04-19T22:35:09.733Z,7.90
2024-04-19T22:37:37.076Z,4.73
2024-04-19T22:40:06.590Z,6.23
2024-04-19T22:42:33.638Z,5.10
2024-04-19T22:45:00.596Z,11.40
2024-04-19T22:47:29.716Z,7.03
2024-04-19T22:49:56.807Z,4.40
2024-04-19T22:52:23.767Z,5.00
2024-04-19T22:54:53.615Z,3.80
2024-04-19T22:57:20.635Z,5.63
2024-04-19T22:59:47.650Z,6.40
2024-04-19T23:02:14.751Z,6.67
2024-04-19T23:04:41.931Z,5.00
2024-04-19T23:07:09.074Z,4.77
2024-04-19T23:09:36.091Z,4.70
2024-04-19T23:12:06.004Z,6.13
2024-04-19T23:14:33.007Z,3.87
2024-04-19T23:17:00.605Z,3.50
2024-04-19T23:19:27.679Z,5.10
2024-04-19T23:21:54.675Z,6.00
2024-04-19T23:24:21.630Z,4.23
2024-04-19T23:26:50.097Z,7.43
2024-04-19T23:29:17.120Z,4.33
2024-04-19T23:31:44.059Z,4.90
2024-04-19T23:34:11.594Z,4.93
2024-04-19T23:36:38.626Z,5.17
2024-04-19T23:39:05.572Z,5.60
2024-04-19T23:41:32.557Z,3.83
2024-04-19T23:43:59.995Z,5.50
2024-04-19T23:46:29.509Z,4.90
2024-04-19T23:48:56.458Z,8.93
2024-04-19T23:51:23.427Z,5.30
2024-04-19T23:53:50.451Z,5.10
2024-04-19T23:56:17.453Z,5.60
2024-04-19T23:58:44.441Z,4.33
